Terminal Aerodrome Forecast
Issued by NWS Grand Forks, ND

Home | Current Version | Previous Version | Text Only | Print | Product List | Glossary Off
Versions: 1 2 3 4 5 6 7 8 9 10 11 12 13 14 15 16 17

000
FTUS43 KFGF 210520
TAFFAR
TAF
KFAR 210520Z 2106/2206 17019G30KT P6SM BKN250
     FM211400 21013KT P6SM BKN045
     FM211600 24012KT P6SM BKN140
     FM211800 28012KT P6SM BKN130
     FM220000 25008KT P6SM BKN100
     FM220100 25009KT P6SM SCT120=

USA.gov is the U.S. government's official web portal to all federal, state and local government web resources and services.